< < Back
Terminal Aerodrome Forecast


Current Version              Previous Versions:   1  2  3  4  5  6  7  8  9  

Terminal Aerodrome Forecast

679
FTUS44 KOHX 262320
TAFBNA
TAF
KBNA 262320Z 2700/2724 36005KT P6SM SCT100 BKN250
     FM271500 33005KT P6SM SKC=

Latest METAR

018
SAUS70 KWBC 271000 RRI
MTRBNA
METAR KBNA 270953Z 00000KT 10SM CLR 13/11 A3006 RMK AO2 SLP175
T01330111


USA.gov is the U.S. government's official web portal to all federal, state and local government web resources and services.